createdAt,value
2022-09-01T00:00:01.651Z,119.67
2022-09-01T00:02:33.501Z,136.07
2022-09-01T00:05:01.965Z,136.43
2022-09-01T00:07:31.682Z,127.40
2022-09-01T00:10:00.525Z,125.67
2022-09-01T00:12:29.149Z,129.90
2022-09-01T00:14:57.352Z,124.73
2022-09-01T00:17:26.140Z,130.50
2022-09-01T00:19:54.216Z,128.10
2022-09-01T00:22:22.635Z,125.37
2022-09-01T00:24:52.113Z,132.50
2022-09-01T00:27:20.938Z,126.27
2022-09-01T00:29:56.501Z,134.80
2022-09-01T00:32:25.422Z,133.00
2022-09-01T00:34:53.619Z,130.00
2022-09-01T00:37:21.814Z,131.80
2022-09-01T00:39:51.212Z,133.43
2022-09-01T00:42:19.408Z,137.97
2022-09-01T00:44:47.653Z,139.40
2022-09-01T00:47:16.233Z,144.53
2022-09-01T00:49:47.813Z,146.03
2022-09-01T00:52:18.325Z,146.67
2022-09-01T00:54:49.435Z,141.77
2022-09-01T00:57:19.140Z,147.27
2022-09-01T00:59:48.969Z,138.33
2022-09-01T01:02:17.049Z,142.80
2022-09-01T01:04:46.310Z,142.03
2022-09-01T01:07:14.914Z,144.63
2022-09-01T01:09:45.561Z,135.87
2022-09-01T01:12:18.551Z,142.00
2022-09-01T01:14:50.461Z,148.83
2022-09-01T01:17:19.348Z,149.57
2022-09-01T01:20:06.318Z,138.93
2022-09-01T01:23:00.489Z,143.00
2022-09-01T01:25:30.308Z,137.10
2022-09-01T01:28:10.556Z,142.70
2022-09-01T01:30:39.984Z,147.90
2022-09-01T01:33:08.430Z,144.70
2022-09-01T01:35:37.798Z,143.43
2022-09-01T01:38:08.088Z,139.87
2022-09-01T01:40:38.474Z,146.03
2022-09-01T01:43:07.229Z,144.47
2022-09-01T01:45:35.836Z,144.47
2022-09-01T01:48:08.684Z,143.83
2022-09-01T01:50:37.969Z,143.67
2022-09-01T01:53:10.898Z,143.73
2022-09-01T01:55:43.812Z,147.30
2022-09-01T01:58:15.117Z,145.23
2022-09-01T02:00:46.703Z,144.73
2022-09-01T02:03:18.996Z,148.77
2022-09-01T02:05:48.593Z,142.07
2022-09-01T02:08:20.833Z,138.33
2022-09-01T02:10:52.345Z,154.83
2022-09-01T02:13:25.222Z,141.00
2022-09-01T02:15:59.165Z,134.90
2022-09-01T02:18:31.166Z,142.97
2022-09-01T02:21:00.926Z,137.40
2022-09-01T02:23:30.014Z,136.73
2022-09-01T02:26:18.060Z,137.87
2022-09-01T02:28:55.570Z,135.67
2022-09-01T02:31:28.057Z,140.43
2022-09-01T02:33:57.339Z,139.03
2022-09-01T02:36:25.901Z,142.40
2022-09-01T02:38:56.556Z,135.03
2022-09-01T02:41:29.220Z,136.07
2022-09-01T02:44:02.308Z,135.73
2022-09-01T02:46:30.969Z,141.03
2022-09-01T02:49:00.637Z,132.80
2022-09-01T02:51:29.216Z,129.47
2022-09-01T02:53:59.344Z,136.30
2022-09-01T02:56:28.868Z,140.90
2022-09-01T02:58:59.806Z,135.37
2022-09-01T03:01:32.698Z,137.03
2022-09-01T03:04:05.682Z,136.53
2022-09-01T03:06:37.880Z,130.63
2022-09-01T03:09:07.471Z,128.30
2022-09-01T03:11:42.021Z,134.30
2022-09-01T03:14:10.365Z,123.97
2022-09-01T03:16:39.291Z,128.30
2022-09-01T03:19:08.962Z,132.77
2022-09-01T03:21:40.940Z,127.03
2022-09-01T03:24:10.175Z,132.13
2022-09-01T03:26:43.421Z,124.50
2022-09-01T03:29:15.514Z,119.53
2022-09-01T03:31:43.848Z,120.27
2022-09-01T03:34:12.594Z,121.07
2022-09-01T03:36:50.370Z,111.90
2022-09-01T03:39:25.519Z,108.97
2022-09-01T03:41:56.456Z,103.70
2022-09-01T03:44:24.720Z,104.93
2022-09-01T03:46:52.867Z,101.37
2022-09-01T03:49:24.965Z,99.27
2022-09-01T03:51:56.771Z,103.17
2022-09-01T03:54:30.203Z,96.13
2022-09-01T03:57:00.554Z,99.80
2022-09-01T03:59:34.951Z,92.43
2022-09-01T04:02:03.784Z,99.73
2022-09-01T04:04:33.024Z,94.97
2022-09-01T04:07:04.467Z,95.13
2022-09-01T04:09:35.112Z,96.47
2022-09-01T04:12:11.315Z,92.63
2022-09-01T04:14:40.833Z,88.80
2022-09-01T04:17:37.741Z,85.70
2022-09-01T04:20:09.252Z,85.97
2022-09-01T04:22:38.181Z,87.93
2022-09-01T04:25:06.865Z,95.30
2022-09-01T04:27:40.631Z,90.97
2022-09-01T04:30:11.863Z,88.77
2022-09-01T04:32:47.271Z,87.20
2022-09-01T04:35:18.956Z,89.47
2022-09-01T04:37:48.385Z,82.97
2022-09-01T04:40:18.671Z,79.87
2022-09-01T04:42:49.240Z,83.63
2022-09-01T04:45:21.148Z,76.37
2022-09-01T04:47:50.879Z,75.87
2022-09-01T04:50:19.534Z,78.17
2022-09-01T04:53:07.197Z,68.73
2022-09-01T04:55:49.869Z,68.17
2022-09-01T04:58:22.440Z,67.90
2022-09-01T05:00:52.937Z,71.27
2022-09-01T05:03:23.443Z,68.80
2022-09-01T05:06:15.690Z,64.03
2022-09-01T05:08:48.251Z,68.53
2022-09-01T05:11:27.784Z,62.40
2022-09-01T05:14:06.982Z,63.37
2022-09-01T05:16:35.780Z,65.37
2022-09-01T05:19:04.726Z,62.40
2022-09-01T05:21:35.441Z,63.90
2022-09-01T05:24:05.007Z,65.83
2022-09-01T05:26:34.615Z,64.67
2022-09-01T05:29:10.764Z,61.63
2022-09-01T05:31:39.266Z,61.27
2022-09-01T05:34:09.995Z,60.37
2022-09-01T05:36:39.943Z,60.00
2022-09-01T05:39:11.123Z,59.47
2022-09-01T05:41:40.848Z,58.40
2022-09-01T05:44:11.218Z,57.33
2022-09-01T05:46:40.267Z,59.13
2022-09-01T05:49:13.503Z,57.03
2022-09-01T05:51:50.861Z,57.27
2022-09-01T05:54:23.215Z,58.40
2022-09-01T05:56:55.644Z,56.63
2022-09-01T05:59:31.315Z,60.67
2022-09-01T06:02:02.825Z,58.07
2022-09-01T06:04:31.695Z,59.77
2022-09-01T06:07:10.090Z,58.83
2022-09-01T06:09:44.146Z,62.07
2022-09-01T06:12:17.553Z,62.43
2022-09-01T06:14:50.283Z,60.47
2022-09-01T06:17:22.101Z,65.43
2022-09-01T06:19:52.591Z,64.17
2022-09-01T06:22:20.684Z,66.03
2022-09-01T06:24:56.689Z,68.13
2022-09-01T06:27:29.927Z,67.07
2022-09-01T06:29:59.728Z,71.07
2022-09-01T06:32:28.772Z,73.00
2022-09-01T06:34:58.084Z,74.33
2022-09-01T06:37:26.750Z,71.37
2022-09-01T06:40:03.531Z,71.80
2022-09-01T06:42:38.120Z,75.07
2022-09-01T06:45:10.442Z,69.20
2022-09-01T06:47:40.465Z,66.57
2022-09-01T06:50:12.111Z,65.93
2022-09-01T06:55:33.848Z,63.63
2022-09-01T06:58:07.079Z,74.93
2022-09-01T07:00:41.897Z,73.27
2022-09-01T07:03:14.768Z,74.17
2022-09-01T07:06:59.377Z,62.67
2022-09-01T07:09:20.414Z,67.27
2022-09-01T07:12:29.407Z,61.50
2022-09-01T07:17:51.466Z,61.70
2022-09-01T07:20:24.668Z,62.77
2022-09-01T07:23:05.776Z,62.43
2022-09-01T07:26:01.045Z,64.13
2022-09-01T07:28:36.880Z,55.37
2022-09-01T07:39:48.685Z,56.97
2022-09-01T07:43:12.878Z,56.33
2022-09-01T07:49:28.893Z,51.13
2022-09-01T07:51:50.086Z,54.57
2022-09-01T07:54:23.936Z,52.67
2022-09-01T07:56:55.493Z,54.37
2022-09-01T07:59:27.993Z,57.20
2022-09-01T08:02:06.620Z,52.60
2022-09-01T08:04:35.214Z,56.53
2022-09-01T08:07:06.442Z,52.13
2022-09-01T08:09:44.103Z,51.83
2022-09-01T08:12:15.886Z,52.83
2022-09-01T08:15:12.676Z,53.57
2022-09-01T08:17:57.589Z,48.33
2022-09-01T08:20:28.294Z,48.00
2022-09-01T08:23:01.930Z,51.10
2022-09-01T08:25:37.968Z,51.70
2022-09-01T08:28:09.755Z,54.67
2022-09-01T08:30:40.659Z,50.13
2022-09-01T08:33:11.976Z,51.90
2022-09-01T08:35:45.358Z,61.13
2022-09-01T08:38:14.965Z,59.83
2022-09-01T08:40:45.232Z,62.77
2022-09-01T08:43:21.057Z,62.93
2022-09-01T08:45:53.600Z,64.47
2022-09-01T08:51:20.584Z,62.00
2022-09-01T08:54:07.888Z,64.23
2022-09-01T08:56:37.522Z,67.07
2022-09-01T08:59:10.680Z,77.57
2022-09-01T09:02:22.443Z,74.67
2022-09-01T09:05:18.786Z,85.70
2022-09-01T09:08:12.373Z,72.37
2022-09-01T09:10:49.267Z,76.77
2022-09-01T09:13:23.217Z,84.80
2022-09-01T09:16:07.399Z,78.77
2022-09-01T09:18:54.760Z,78.83
2022-09-01T09:21:27.053Z,75.27
2022-09-01T09:23:58.261Z,85.37
2022-09-01T09:26:42.056Z,98.97
2022-09-01T09:29:10.538Z,94.87
2022-09-01T09:31:45.829Z,94.97
2022-09-01T09:34:32.616Z,96.20
2022-09-01T09:37:03.435Z,104.50
2022-09-01T09:39:31.503Z,94.27
2022-09-01T09:42:09.607Z,96.53
2022-09-01T09:44:46.682Z,100.17
2022-09-01T09:47:44.016Z,99.37
2022-09-01T09:50:20.991Z,93.73
2022-09-01T09:52:49.607Z,101.53
2022-09-01T09:55:29.415Z,106.10
2022-09-01T09:58:00.300Z,104.20
2022-09-01T10:00:30.280Z,101.33
2022-09-01T10:03:01.348Z,105.77
2022-09-01T10:05:44.108Z,97.07
2022-09-01T10:08:14.839Z,106.10
2022-09-01T10:10:45.659Z,112.30
2022-09-01T10:13:31.448Z,110.50
2022-09-01T10:16:05.498Z,109.73
2022-09-01T10:18:38.327Z,113.20
2022-09-01T10:21:10.298Z,114.30
2022-09-01T10:23:38.751Z,113.73
2022-09-01T10:26:11.882Z,113.97
2022-09-01T10:28:49.477Z,108.10
2022-09-01T10:31:23.999Z,115.40
2022-09-01T10:33:58.639Z,108.03
2022-09-01T10:36:27.648Z,111.00
2022-09-01T10:39:04.592Z,107.17
2022-09-01T10:42:00.435Z,107.63
2022-09-01T10:44:35.759Z,108.13
2022-09-01T10:47:14.539Z,111.13
2022-09-01T10:49:58.683Z,110.67
2022-09-01T10:53:01.277Z,115.10
2022-09-01T10:55:39.249Z,107.63
2022-09-01T11:01:15.487Z,111.70
2022-09-01T11:03:57.481Z,112.97
2022-09-01T11:07:17.296Z,110.10
2022-09-01T11:10:31.450Z,111.17
2022-09-01T11:13:35.949Z,111.87
2022-09-01T11:19:37.562Z,117.80
2022-09-01T11:22:27.218Z,119.23
2022-09-01T11:25:40.905Z,120.00
2022-09-01T11:28:41.804Z,118.23
2022-09-01T11:31:31.098Z,129.37
2022-09-01T11:34:12.154Z,124.93
2022-09-01T11:36:50.368Z,123.03
2022-09-01T11:39:31.475Z,121.57
2022-09-01T11:42:04.284Z,120.90
2022-09-01T11:44:38.637Z,130.77
2022-09-01T11:47:14.159Z,126.30
2022-09-01T11:49:50.647Z,128.10
2022-09-01T11:52:20.196Z,132.90
2022-09-01T11:54:48.370Z,136.57
2022-09-01T11:57:29.130Z,127.27
2022-09-01T11:59:58.116Z,132.23
2022-09-01T12:02:33.463Z,135.67
2022-09-01T12:05:24.395Z,131.07
2022-09-01T12:07:52.851Z,132.27
2022-09-01T12:10:32.554Z,123.00
2022-09-01T12:13:06.932Z,119.70
2022-09-01T12:15:39.327Z,128.67
2022-09-01T12:18:20.909Z,139.43
2022-09-01T12:23:27.110Z,120.27
2022-09-01T12:25:59.111Z,121.97
2022-09-01T12:28:33.849Z,108.60
2022-09-01T12:31:07.554Z,113.53
2022-09-01T12:33:37.866Z,118.17
2022-09-01T12:36:21.001Z,119.20
2022-09-01T12:38:49.300Z,109.40
2022-09-01T12:41:32.925Z,115.37
2022-09-01T12:44:28.684Z,111.10
2022-09-01T12:46:59.844Z,106.20
2022-09-01T12:49:45.246Z,103.93
2022-09-01T12:52:25.388Z,108.70
2022-09-01T12:54:55.985Z,109.00
2022-09-01T12:57:28.792Z,115.27
2022-09-01T13:00:18.220Z,110.33
2022-09-01T13:02:49.629Z,113.87
2022-09-01T13:05:31.860Z,125.73
2022-09-01T13:08:06.033Z,120.47
2022-09-01T13:10:43.135Z,111.57
2022-09-01T13:13:14.489Z,117.47
2022-09-01T13:15:48.108Z,129.20
2022-09-01T13:18:16.697Z,131.27
2022-09-01T13:20:46.411Z,123.60
2022-09-01T13:23:14.496Z,129.63
2022-09-01T13:25:44.305Z,134.87
2022-09-01T13:28:12.676Z,125.93
2022-09-01T13:30:41.896Z,129.43
2022-09-01T13:33:20.316Z,127.07
2022-09-01T13:35:51.135Z,131.67
2022-09-01T13:38:19.713Z,137.30
2022-09-01T13:40:49.375Z,132.27
2022-09-01T13:43:20.779Z,132.73
2022-09-01T13:45:49.172Z,141.47
2022-09-01T13:48:18.076Z,138.70
2022-09-01T13:53:37.395Z,129.40
2022-09-01T13:56:05.969Z,136.63
2022-09-01T13:58:33.995Z,130.57
2022-09-01T14:01:02.537Z,134.47
2022-09-01T14:03:32.208Z,137.03
2022-09-01T14:06:03.054Z,139.90
2022-09-01T14:08:34.234Z,137.53
2022-09-01T14:11:03.925Z,133.00
2022-09-01T14:13:32.648Z,134.17
2022-09-01T14:16:00.838Z,134.63
2022-09-01T14:18:32.859Z,131.67
2022-09-01T14:21:01.531Z,138.57
2022-09-01T14:23:30.127Z,145.07
2022-09-01T14:25:58.749Z,134.70
2022-09-01T14:28:28.168Z,135.27
2022-09-01T14:33:27.189Z,139.37
2022-09-01T14:35:55.225Z,141.77
2022-09-01T14:38:23.848Z,137.93
2022-09-01T14:40:53.430Z,135.93
2022-09-01T14:43:22.261Z,135.27
2022-09-01T14:45:52.145Z,132.17
2022-09-01T14:48:20.823Z,133.77
2022-09-01T14:50:51.926Z,134.10
2022-09-01T14:53:20.274Z,132.30
2022-09-01T14:55:55.531Z,133.23
2022-09-01T14:58:31.930Z,128.80
2022-09-01T15:01:17.522Z,129.03
2022-09-01T15:03:52.477Z,122.37
2022-09-01T15:06:21.982Z,128.30
2022-09-01T15:08:51.184Z,132.20
2022-09-01T15:11:21.045Z,127.43
2022-09-01T15:13:52.609Z,125.83
2022-09-01T15:16:25.447Z,131.50
2022-09-01T15:18:55.477Z,126.97
2022-09-01T15:21:24.792Z,126.23
2022-09-01T15:23:55.614Z,124.37
2022-09-01T15:26:23.921Z,126.87
2022-09-01T15:28:52.243Z,129.80
2022-09-01T15:31:32.638Z,130.27
2022-09-01T15:34:02.848Z,130.63
2022-09-01T15:36:31.586Z,137.87
2022-09-01T15:39:00.158Z,135.80
2022-09-01T15:41:31.776Z,133.97
2022-09-01T15:44:00.163Z,141.00
2022-09-01T15:46:32.632Z,137.00
2022-09-01T15:49:01.567Z,136.70
2022-09-01T15:51:32.580Z,138.97
2022-09-01T15:54:02.566Z,145.23
2022-09-01T15:56:32.036Z,140.37
2022-09-01T15:59:02.185Z,150.40
2022-09-01T16:01:34.462Z,146.07
2022-09-01T16:04:02.898Z,145.33
2022-09-01T16:06:31.639Z,140.43
2022-09-01T16:08:59.663Z,133.13
2022-09-01T16:11:28.184Z,135.90
2022-09-01T16:13:59.518Z,134.43
2022-09-01T16:16:40.556Z,136.00
2022-09-01T16:19:22.601Z,135.87
2022-09-01T16:21:56.687Z,135.30
2022-09-01T16:24:25.245Z,136.40
2022-09-01T16:26:53.662Z,138.80
2022-09-01T16:29:26.622Z,147.23
2022-09-01T16:32:00.015Z,143.03
2022-09-01T16:34:28.701Z,144.00
2022-09-01T16:37:02.821Z,142.97
2022-09-01T16:39:36.207Z,150.57
2022-09-01T16:42:13.331Z,140.90
2022-09-01T16:44:49.779Z,144.67
2022-09-01T16:47:33.434Z,142.17
2022-09-01T16:50:07.566Z,143.87
2022-09-01T16:52:42.437Z,143.60
2022-09-01T16:55:19.931Z,153.43
2022-09-01T16:57:59.074Z,141.20
2022-09-01T17:00:33.005Z,146.27
2022-09-01T17:03:08.883Z,147.47
2022-09-01T17:05:51.404Z,150.97
2022-09-01T17:08:24.080Z,152.03
2022-09-01T17:10:56.239Z,156.80
2022-09-01T17:13:28.283Z,154.57
2022-09-01T17:16:02.184Z,153.73
2022-09-01T17:18:35.348Z,158.00
2022-09-01T17:21:11.215Z,152.53
2022-09-01T17:23:48.777Z,165.10
2022-09-01T17:26:20.990Z,174.20
2022-09-01T17:28:55.293Z,160.70
2022-09-01T17:31:38.160Z,159.87
2022-09-01T17:34:15.584Z,161.30
2022-09-01T17:36:52.762Z,172.37
2022-09-01T17:39:29.002Z,164.17
2022-09-01T17:42:01.094Z,170.50
2022-09-01T17:44:35.610Z,183.77
2022-09-01T17:47:12.525Z,174.20
2022-09-01T17:49:50.701Z,184.10
2022-09-01T17:52:22.591Z,182.13
2022-09-01T17:54:56.424Z,187.90
2022-09-01T17:57:28.700Z,189.63
2022-09-01T18:00:02.315Z,188.90
2022-09-01T18:02:58.188Z,181.27
2022-09-01T18:05:28.328Z,182.37
2022-09-01T18:08:17.537Z,200.20
2022-09-01T18:10:50.192Z,183.90
2022-09-01T18:13:42.472Z,183.00
2022-09-01T18:16:14.314Z,187.23
2022-09-01T18:18:43.960Z,185.33
2022-09-01T18:21:16.498Z,192.63
2022-09-01T18:23:46.418Z,191.23
2022-09-01T18:26:20.616Z,193.13
2022-09-01T18:28:52.611Z,192.17
2022-09-01T18:31:38.366Z,192.33
2022-09-01T18:34:11.640Z,192.17
2022-09-01T18:36:47.600Z,200.37
2022-09-01T18:39:20.242Z,205.47
2022-09-01T18:41:58.341Z,201.57
2022-09-01T18:44:38.067Z,200.17
2022-09-01T18:47:09.387Z,200.83
2022-09-01T18:49:46.580Z,204.53
2022-09-01T18:52:26.709Z,200.80
2022-09-01T18:55:03.831Z,193.47
2022-09-01T18:57:37.109Z,195.67
2022-09-01T19:00:18.236Z,199.13
2022-09-01T19:03:10.760Z,197.33
2022-09-01T19:05:58.539Z,195.70
2022-09-01T19:08:41.015Z,197.17
2022-09-01T19:11:15.101Z,201.67
2022-09-01T19:13:50.024Z,199.33
2022-09-01T19:16:26.731Z,206.67
2022-09-01T19:19:01.066Z,203.53
2022-09-01T19:21:32.467Z,193.63
2022-09-01T19:24:04.379Z,195.93
2022-09-01T19:26:39.267Z,194.47
2022-09-01T19:29:09.347Z,198.33
2022-09-01T19:31:40.387Z,199.10
2022-09-01T19:34:12.682Z,205.33
2022-09-01T19:36:43.883Z,194.33
2022-09-01T19:39:16.566Z,190.37
2022-09-01T19:41:47.193Z,181.83
2022-09-01T19:44:20.240Z,192.53
2022-09-01T19:46:51.378Z,188.33
2022-09-01T19:49:27.609Z,181.87
2022-09-01T19:52:00.157Z,184.77
2022-09-01T19:54:37.075Z,188.83
2022-09-01T19:57:12.367Z,183.93
2022-09-01T19:59:49.267Z,192.17
2022-09-01T20:02:26.065Z,178.07
2022-09-01T20:04:58.066Z,185.47
2022-09-01T20:07:31.854Z,189.97
2022-09-01T20:10:19.950Z,181.77
2022-09-01T20:12:58.780Z,170.97
2022-09-01T20:15:35.277Z,178.80
2022-09-01T20:18:05.474Z,176.70
2022-09-01T20:20:39.071Z,183.63
2022-09-01T20:23:11.740Z,191.93
2022-09-01T20:25:44.303Z,186.10
2022-09-01T20:28:21.156Z,174.33
2022-09-01T20:30:52.524Z,182.97
2022-09-01T20:33:24.312Z,178.70
2022-09-01T20:35:56.359Z,181.70
2022-09-01T20:38:45.517Z,176.50
2022-09-01T20:41:19.924Z,164.53
2022-09-01T20:43:54.066Z,170.07
2022-09-01T20:46:24.565Z,177.17
2022-09-01T20:48:52.835Z,179.17
2022-09-01T20:51:27.549Z,190.50
2022-09-01T20:54:14.332Z,180.00
2022-09-01T20:56:48.121Z,176.50
2022-09-01T20:59:21.662Z,178.93
2022-09-01T21:01:53.750Z,180.37
2022-09-01T21:04:36.850Z,173.33
2022-09-01T21:07:09.575Z,172.60
2022-09-01T21:09:48.255Z,171.37
2022-09-01T21:12:25.051Z,165.20
2022-09-01T21:15:00.873Z,174.43
2022-09-01T21:17:36.517Z,170.27
2022-09-01T21:20:13.288Z,176.43
2022-09-01T21:22:41.465Z,169.50
2022-09-01T21:25:09.697Z,171.43
2022-09-01T21:27:43.565Z,173.80
2022-09-01T21:30:13.993Z,172.13
2022-09-01T21:32:42.253Z,171.30
2022-09-01T21:35:13.373Z,171.50
2022-09-01T21:37:41.606Z,178.97
2022-09-01T21:40:11.228Z,175.27
2022-09-01T21:42:44.470Z,165.07
2022-09-01T21:45:15.597Z,174.20
2022-09-01T21:47:45.048Z,172.87
2022-09-01T21:50:14.601Z,164.40
2022-09-01T21:52:42.916Z,165.93
2022-09-01T21:55:11.762Z,165.73
2022-09-01T21:57:42.184Z,163.40
2022-09-01T22:00:14.162Z,170.20
2022-09-01T22:02:45.952Z,173.27
2022-09-01T22:05:14.535Z,167.60
2022-09-01T22:07:45.571Z,169.53
2022-09-01T22:10:16.588Z,180.87
2022-09-01T22:12:47.692Z,178.57
2022-09-01T22:15:18.533Z,180.43
2022-09-01T22:17:46.874Z,182.97
2022-09-01T22:20:17.056Z,170.97
2022-09-01T22:22:45.966Z,174.03
2022-09-01T22:25:17.334Z,173.67
2022-09-01T22:27:46.947Z,171.47
2022-09-01T22:30:16.715Z,178.97
2022-09-01T22:32:47.496Z,186.23
2022-09-01T22:35:17.081Z,175.80
2022-09-01T22:37:45.805Z,176.73
2022-09-01T22:40:15.675Z,178.57
2022-09-01T22:42:44.162Z,177.40
2022-09-01T22:45:15.079Z,180.67
2022-09-01T22:47:43.878Z,179.40
2022-09-01T22:50:12.836Z,187.27
2022-09-01T22:52:40.928Z,183.07
2022-09-01T22:55:10.514Z,177.23
2022-09-01T22:57:39.104Z,181.63
2022-09-01T23:00:09.873Z,177.23
2022-09-01T23:02:39.696Z,181.97
2022-09-01T23:05:08.376Z,193.43
2022-09-01T23:07:39.697Z,191.73
2022-09-01T23:10:10.168Z,188.60
2022-09-01T23:12:38.485Z,184.20
2022-09-01T23:15:07.790Z,185.03
2022-09-01T23:17:36.687Z,181.13
2022-09-01T23:20:09.300Z,180.77
2022-09-01T23:22:37.375Z,178.37
2022-09-01T23:25:06.141Z,182.53
2022-09-01T23:27:34.885Z,198.60
2022-09-01T23:30:03.017Z,198.13
2022-09-01T23:32:31.254Z,195.47
2022-09-01T23:34:59.768Z,198.03
2022-09-01T23:37:29.923Z,201.37
2022-09-01T23:39:57.948Z,200.43
2022-09-01T23:42:26.025Z,187.67
2022-09-01T23:44:54.088Z,192.83
2022-09-01T23:47:22.307Z,194.83
2022-09-01T23:49:50.335Z,195.80
2022-09-01T23:52:18.317Z,198.30
2022-09-01T23:54:47.760Z,201.63
2022-09-01T23:57:15.900Z,196.63
2022-09-01T23:59:44.091Z,197.03
